createdAt,value
2017-08-27T00:01:42.615Z,98.40
2017-08-27T00:06:29.301Z,98.80
2017-08-27T00:11:15.986Z,99.30
2017-08-27T00:16:02.732Z,99.70
2017-08-27T00:20:49.411Z,99.80
2017-08-27T00:25:36.164Z,99.90
2017-08-27T00:30:22.834Z,99.90
2017-08-27T00:35:09.497Z,99.90
2017-08-27T00:39:56.207Z,99.90
2017-08-27T00:44:42.944Z,99.90
2017-08-27T00:49:29.643Z,99.90
2017-08-27T00:54:17.030Z,99.90
2017-08-27T00:59:03.757Z,99.90
2017-08-27T01:03:50.460Z,99.90
2017-08-27T01:08:37.148Z,99.90
2017-08-27T01:13:24.552Z,99.90
2017-08-27T01:18:11.241Z,99.90
2017-08-27T01:22:58.042Z,99.90
2017-08-27T01:27:44.721Z,99.90
2017-08-27T01:32:31.620Z,99.90
2017-08-27T01:37:18.276Z,99.90
2017-08-27T01:42:04.990Z,99.90
2017-08-27T01:46:51.922Z,99.90
2017-08-27T01:51:38.725Z,99.90
2017-08-27T01:56:25.416Z,99.90
2017-08-27T02:01:12.124Z,99.90
2017-08-27T02:05:58.925Z,99.90
2017-08-27T02:10:45.643Z,99.90
2017-08-27T02:15:32.387Z,99.90
2017-08-27T02:20:19.068Z,99.90
2017-08-27T02:25:05.982Z,99.90
2017-08-27T02:29:52.630Z,99.90
2017-08-27T02:34:39.902Z,99.90
2017-08-27T02:39:26.554Z,99.90
2017-08-27T02:44:13.228Z,99.90
2017-08-27T02:48:59.878Z,99.90
2017-08-27T02:53:46.560Z,99.90
2017-08-27T02:58:33.226Z,99.90
2017-08-27T03:03:20.193Z,99.90
2017-08-27T03:08:06.842Z,99.90
2017-08-27T03:12:53.522Z,99.90
2017-08-27T03:17:40.145Z,99.90
2017-08-27T03:22:26.861Z,99.90
2017-08-27T03:27:13.641Z,99.90
2017-08-27T03:32:00.421Z,99.90
2017-08-27T03:36:47.582Z,99.90
2017-08-27T03:41:34.208Z,99.90
2017-08-27T03:46:21.004Z,99.90
2017-08-27T03:51:07.664Z,99.90
2017-08-27T03:55:54.365Z,99.90
2017-08-27T04:00:41.029Z,99.90
2017-08-27T04:05:27.665Z,99.90
2017-08-27T04:10:14.294Z,99.90
2017-08-27T04:15:00.964Z,99.90
2017-08-27T04:19:47.599Z,99.90
2017-08-27T04:24:34.290Z,99.90
2017-08-27T04:29:20.954Z,99.90
2017-08-27T04:34:07.984Z,99.90
2017-08-27T04:38:54.691Z,99.90
2017-08-27T04:43:41.329Z,99.90
2017-08-27T04:48:28.092Z,99.90
2017-08-27T04:53:14.745Z,99.90
2017-08-27T04:58:01.560Z,99.90
2017-08-27T05:02:48.258Z,99.90
2017-08-27T05:07:35.106Z,99.90
2017-08-27T05:12:22.216Z,99.90
2017-08-27T05:17:08.906Z,99.90
2017-08-27T05:21:55.623Z,99.90
2017-08-27T05:26:42.361Z,99.90
2017-08-27T05:31:29.131Z,99.90
2017-08-27T05:36:16.037Z,99.90
2017-08-27T05:41:02.698Z,99.90
2017-08-27T05:45:49.374Z,99.90
2017-08-27T05:50:36.200Z,99.90
2017-08-27T05:55:22.912Z,99.90
2017-08-27T06:00:09.576Z,99.90
2017-08-27T06:04:56.586Z,99.90
2017-08-27T06:09:43.238Z,99.90
2017-08-27T06:14:29.881Z,99.90
2017-08-27T06:19:16.509Z,99.90
2017-08-27T06:24:03.127Z,99.90
2017-08-27T06:28:50.168Z,98.30
2017-08-27T06:33:36.783Z,97.90
2017-08-27T06:38:23.492Z,97.20
2017-08-27T06:43:10.229Z,95.90
2017-08-27T06:47:56.938Z,95.60
2017-08-27T06:52:43.557Z,94.40
2017-08-27T06:57:30.234Z,94.90
2017-08-27T07:02:16.863Z,94.30
2017-08-27T07:07:03.607Z,93.90
2017-08-27T07:11:50.574Z,92.90
2017-08-27T07:16:37.229Z,92.50
2017-08-27T07:21:23.937Z,92.30
2017-08-27T07:26:10.602Z,93.50
2017-08-27T07:30:57.267Z,92.00
2017-08-27T07:35:43.893Z,92.10
2017-08-27T07:40:30.504Z,91.20
2017-08-27T07:45:17.165Z,91.60
2017-08-27T07:50:03.794Z,92.00
2017-08-27T07:54:50.432Z,92.20
2017-08-27T07:59:37.081Z,92.60
2017-08-27T08:04:23.724Z,92.60
2017-08-27T08:09:10.328Z,92.40
2017-08-27T08:13:57.014Z,91.20
2017-08-27T08:18:43.969Z,92.10
2017-08-27T08:23:30.560Z,88.80
2017-08-27T08:28:17.181Z,87.20
2017-08-27T08:33:03.803Z,83.20
2017-08-27T08:37:50.423Z,81.40
2017-08-27T08:42:37.037Z,78.70
2017-08-27T08:47:23.703Z,73.30
2017-08-27T08:52:10.722Z,74.80
2017-08-27T08:56:57.315Z,76.90
2017-08-27T09:01:43.951Z,76.30
2017-08-27T09:06:30.598Z,72.90
2017-08-27T09:11:17.228Z,74.40
2017-08-27T09:16:03.879Z,71.30
2017-08-27T09:20:50.555Z,73.10
2017-08-27T09:25:37.998Z,67.50
2017-08-27T09:30:24.666Z,67.50
2017-08-27T09:35:11.323Z,66.40
2017-08-27T09:39:57.926Z,65.50
2017-08-27T09:44:44.553Z,66.50
2017-08-27T09:49:31.279Z,68.90
2017-08-27T09:54:18.312Z,70.80
2017-08-27T09:59:05.106Z,70.10
2017-08-27T10:03:51.721Z,70.80
2017-08-27T10:08:38.387Z,68.40
2017-08-27T10:13:25.044Z,67.20
2017-08-27T10:18:11.709Z,63.00
2017-08-27T10:22:58.657Z,64.60
2017-08-27T10:27:45.274Z,64.10
2017-08-27T10:32:31.912Z,64.80
2017-08-27T10:37:18.590Z,68.90
2017-08-27T10:42:05.242Z,73.00
2017-08-27T10:46:52.905Z,74.60
2017-08-27T10:51:39.701Z,74.90
2017-08-27T10:56:26.728Z,74.50
2017-08-27T11:01:13.368Z,73.70
2017-08-27T11:06:00.006Z,67.10
2017-08-27T11:10:46.687Z,67.30
2017-08-27T11:15:33.364Z,65.30
2017-08-27T11:20:20.032Z,67.50
2017-08-27T11:25:06.950Z,65.30
2017-08-27T11:29:53.601Z,66.60
2017-08-27T11:34:40.292Z,65.10
2017-08-27T11:39:27.054Z,65.90
2017-08-27T11:44:13.736Z,63.70
2017-08-27T11:49:00.362Z,63.50
2017-08-27T11:53:47.316Z,65.70
2017-08-27T11:58:33.939Z,63.60
2017-08-27T12:03:20.699Z,60.60
2017-08-27T12:08:07.441Z,62.70
2017-08-27T12:12:54.223Z,62.70
2017-08-27T12:17:40.896Z,65.60
2017-08-27T12:22:27.833Z,67.20
2017-08-27T12:27:14.562Z,67.50
2017-08-27T12:32:01.209Z,66.90
2017-08-27T12:36:47.888Z,68.80
2017-08-27T12:41:34.544Z,69.30
2017-08-27T12:46:21.178Z,70.80
2017-08-27T12:51:07.828Z,74.00
2017-08-27T12:55:54.466Z,75.40
2017-08-27T13:00:41.087Z,76.50
2017-08-27T13:05:28.333Z,76.20
2017-08-27T13:10:14.993Z,70.60
2017-08-27T13:15:01.611Z,73.60
2017-08-27T13:19:48.229Z,69.70
2017-08-27T13:24:35.174Z,71.50
2017-08-27T13:29:21.811Z,70.60
2017-08-27T13:34:08.863Z,74.10
2017-08-27T13:38:55.618Z,74.20
2017-08-27T13:43:42.341Z,77.30
2017-08-27T13:48:29.037Z,79.70
2017-08-27T13:53:15.717Z,80.00
2017-08-27T13:58:02.634Z,81.10
2017-08-27T14:02:49.272Z,84.60
2017-08-27T14:07:35.896Z,87.40
2017-08-27T14:12:22.575Z,90.30
2017-08-27T14:17:10.005Z,96.60
2017-08-27T14:21:56.711Z,96.60
2017-08-27T14:26:43.435Z,96.60
2017-08-27T14:31:30.155Z,97.10
2017-08-27T14:36:16.874Z,99.90
2017-08-27T14:41:03.634Z,99.90
2017-08-27T14:45:50.352Z,99.90
2017-08-27T14:50:37.014Z,97.10
2017-08-27T14:55:23.664Z,94.60
2017-08-27T15:00:10.350Z,96.00
2017-08-27T15:04:57.408Z,93.50
2017-08-27T15:09:44.048Z,94.90
2017-08-27T15:14:30.718Z,94.80
2017-08-27T15:19:17.370Z,94.10
2017-08-27T15:24:04.118Z,94.80
2017-08-27T15:28:51.037Z,93.00
2017-08-27T15:33:37.734Z,92.80
2017-08-27T15:38:24.418Z,93.50
2017-08-27T15:43:11.088Z,93.20
2017-08-27T15:47:57.731Z,93.70
2017-08-27T15:52:44.845Z,94.10
2017-08-27T15:57:31.456Z,95.00
2017-08-27T16:02:18.111Z,96.00
2017-08-27T16:07:04.798Z,94.80
2017-08-27T16:11:51.439Z,95.00
2017-08-27T16:16:38.541Z,94.40
2017-08-27T16:21:25.469Z,94.90
2017-08-27T16:26:12.191Z,94.80
2017-08-27T16:30:59.059Z,94.80
2017-08-27T16:35:45.782Z,95.20
2017-08-27T16:40:32.785Z,94.90
2017-08-27T16:45:19.440Z,95.40
2017-08-27T16:50:06.519Z,95.40
2017-08-27T16:54:53.193Z,96.20
2017-08-27T16:59:39.848Z,95.90
2017-08-27T17:04:26.515Z,96.70
2017-08-27T17:09:13.490Z,96.50
2017-08-27T17:14:00.206Z,96.30
2017-08-27T17:18:47.001Z,96.10
2017-08-27T17:23:33.644Z,95.90
2017-08-27T17:28:20.294Z,96.20
2017-08-27T17:33:06.938Z,97.10
2017-08-27T17:37:53.603Z,96.50
2017-08-27T17:42:40.610Z,97.20
2017-08-27T17:47:27.233Z,97.60
2017-08-27T17:52:13.881Z,97.70
2017-08-27T17:57:00.546Z,98.00
2017-08-27T18:01:47.557Z,98.80
2017-08-27T18:06:34.224Z,99.10
2017-08-27T18:11:20.916Z,98.80
2017-08-27T18:16:07.641Z,98.80
2017-08-27T18:20:54.330Z,98.40
2017-08-27T18:25:41.057Z,98.50
2017-08-27T18:30:27.827Z,99.30
2017-08-27T18:35:14.621Z,99.70
2017-08-27T18:40:01.767Z,99.40
2017-08-27T18:44:48.464Z,99.70
2017-08-27T18:49:35.180Z,99.20
2017-08-27T18:54:21.893Z,99.10
2017-08-27T18:59:09.408Z,98.70
2017-08-27T19:03:58.068Z,99.20
2017-08-27T19:08:45.051Z,99.70
2017-08-27T19:13:32.198Z,99.90
2017-08-27T19:18:19.097Z,99.90
2017-08-27T19:23:05.785Z,99.90
2017-08-27T19:27:52.485Z,99.90
2017-08-27T19:32:39.168Z,99.90
2017-08-27T19:37:26.180Z,99.90
2017-08-27T19:42:12.886Z,99.90
2017-08-27T19:46:59.638Z,99.90
2017-08-27T19:51:46.356Z,99.90
2017-08-27T19:56:33.217Z,99.90
2017-08-27T20:01:19.964Z,99.90
2017-08-27T20:06:07.023Z,99.90
2017-08-27T20:10:53.849Z,99.90
2017-08-27T20:15:40.601Z,99.30
2017-08-27T20:20:27.328Z,99.90
2017-08-27T20:25:14.289Z,99.90
2017-08-27T20:30:01.297Z,99.90
2017-08-27T20:34:48.019Z,99.90
2017-08-27T20:39:34.735Z,99.90
2017-08-27T20:44:21.417Z,99.90
2017-08-27T20:49:08.175Z,99.90
2017-08-27T20:53:55.462Z,99.90
2017-08-27T20:58:42.156Z,99.90
2017-08-27T21:03:28.801Z,99.90
2017-08-27T21:08:15.441Z,99.90
2017-08-27T21:13:02.081Z,99.90
2017-08-27T21:17:48.725Z,99.90
2017-08-27T21:22:35.654Z,99.90
2017-08-27T21:27:22.291Z,99.90
2017-08-27T21:32:08.953Z,99.90
2017-08-27T21:36:55.575Z,99.90
2017-08-27T21:41:42.217Z,99.90
2017-08-27T21:46:28.870Z,99.90
2017-08-27T21:51:15.500Z,99.90
2017-08-27T21:56:02.456Z,99.90
2017-08-27T22:00:49.126Z,99.90
2017-08-27T22:05:35.797Z,99.90
2017-08-27T22:10:22.425Z,99.90
2017-08-27T22:15:09.076Z,99.90
2017-08-27T22:19:55.720Z,99.90
2017-08-27T22:24:42.717Z,99.90
2017-08-27T22:29:29.356Z,99.90
2017-08-27T22:34:15.982Z,99.90
2017-08-27T22:39:02.576Z,99.90
2017-08-27T22:43:49.233Z,99.90
2017-08-27T22:48:35.881Z,99.90
2017-08-27T22:53:22.580Z,99.90
2017-08-27T22:58:09.673Z,99.90
2017-08-27T23:02:56.653Z,99.90
2017-08-27T23:07:43.321Z,99.90
2017-08-27T23:12:29.986Z,99.90
2017-08-27T23:17:16.768Z,99.90
2017-08-27T23:22:03.507Z,99.90
2017-08-27T23:26:50.160Z,99.90
2017-08-27T23:31:37.154Z,99.90
2017-08-27T23:36:23.760Z,99.90
2017-08-27T23:41:10.440Z,99.90
2017-08-27T23:45:57.071Z,99.90
2017-08-27T23:50:43.760Z,99.90
2017-08-27T23:55:30.426Z,99.90
